sensor_id;sensor_type;location;lat;lon;timestamp;temperature;humidity
17938;DHT22;16051;53.024;8.630;2022-09-14T00:00:29;14.90;99.90
17938;DHT22;16051;53.024;8.630;2022-09-14T00:04:31;14.90;99.90
17938;DHT22;16051;53.024;8.630;2022-09-14T00:08:34;14.80;99.90
17938;DHT22;16051;53.024;8.630;2022-09-14T00:12:37;14.80;99.90
17938;DHT22;16051;53.024;8.630;2022-09-14T00:16:41;14.80;99.90
17938;DHT22;16051;53.024;8.630;2022-09-14T00:20:44;14.70;99.90
17938;DHT22;16051;53.024;8.630;2022-09-14T00:24:46;14.70;99.90
17938;DHT22;16051;53.024;8.630;2022-09-14T00:29:05;14.70;99.90
17938;DHT22;16051;53.024;8.630;2022-09-14T00:33:08;14.60;99.90
17938;DHT22;16051;53.024;8.630;2022-09-14T00:37:11;14.60;99.90
17938;DHT22;16051;53.024;8.630;2022-09-14T00:41:15;14.60;99.90
17938;DHT22;16051;53.024;8.630;2022-09-14T00:45:27;14.50;99.90
17938;DHT22;16051;53.024;8.630;2022-09-14T00:49:32;14.50;99.90
17938;DHT22;16051;53.024;8.630;2022-09-14T00:53:36;14.50;99.90
17938;DHT22;16051;53.024;8.630;2022-09-14T00:57:44;14.40;99.90
17938;DHT22;16051;53.024;8.630;2022-09-14T01:01:49;14.40;99.90
17938;DHT22;16051;53.024;8.630;2022-09-14T01:06:03;14.30;99.90
17938;DHT22;16051;53.024;8.630;2022-09-14T01:10:22;14.30;99.90
17938;DHT22;16051;53.024;8.630;2022-09-14T01:14:34;14.20;99.90
17938;DHT22;16051;53.024;8.630;2022-09-14T01:18:44;14.20;99.90
17938;DHT22;16051;53.024;8.630;2022-09-14T01:22:52;14.20;99.90
17938;DHT22;16051;53.024;8.630;2022-09-14T01:27:18;14.10;99.90
17938;DHT22;16051;53.024;8.630;2022-09-14T01:31:29;14.10;99.90
17938;DHT22;16051;53.024;8.630;2022-09-14T01:35:40;14.10;99.90
17938;DHT22;16051;53.024;8.630;2022-09-14T01:39:50;14.00;99.90
17938;DHT22;16051;53.024;8.630;2022-09-14T01:44:00;14.00;99.90
17938;DHT22;16051;53.024;8.630;2022-09-14T01:48:10;13.90;99.90
17938;DHT22;16051;53.024;8.630;2022-09-14T01:52:33;13.90;99.90
17938;DHT22;16051;53.024;8.630;2022-09-14T01:56:44;13.90;99.90
17938;DHT22;16051;53.024;8.630;2022-09-14T02:00:53;13.80;99.90
17938;DHT22;16051;53.024;8.630;2022-09-14T02:05:00;13.80;99.90
17938;DHT22;16051;53.024;8.630;2022-09-14T02:09:11;13.70;99.90
17938;DHT22;16051;53.024;8.630;2022-09-14T02:13:17;13.80;99.90
17938;DHT22;16051;53.024;8.630;2022-09-14T02:17:21;13.70;99.90
17938;DHT22;16051;53.024;8.630;2022-09-14T02:21:26;13.70;99.90
17938;DHT22;16051;53.024;8.630;2022-09-14T02:25:30;13.70;99.90
17938;DHT22;16051;53.024;8.630;2022-09-14T02:29:33;13.70;99.90
17938;DHT22;16051;53.024;8.630;2022-09-14T02:33:44;13.60;99.90
17938;DHT22;16051;53.024;8.630;2022-09-14T02:37:59;13.60;99.90
17938;DHT22;16051;53.024;8.630;2022-09-14T02:42:24;13.60;99.90
17938;DHT22;16051;53.024;8.630;2022-09-14T02:46:40;13.50;99.90
17938;DHT22;16051;53.024;8.630;2022-09-14T02:50:53;13.50;99.90
17938;DHT22;16051;53.024;8.630;2022-09-14T02:55:05;13.50;99.90
17938;DHT22;16051;53.024;8.630;2022-09-14T02:59:09;13.40;99.90
17938;DHT22;16051;53.024;8.630;2022-09-14T03:03:13;13.40;99.90
17938;DHT22;16051;53.024;8.630;2022-09-14T03:07:20;13.40;99.90
17938;DHT22;16051;53.024;8.630;2022-09-14T03:11:22;13.40;99.90
17938;DHT22;16051;53.024;8.630;2022-09-14T03:15:24;13.40;99.90
17938;DHT22;16051;53.024;8.630;2022-09-14T03:19:27;13.30;99.90
17938;DHT22;16051;53.024;8.630;2022-09-14T03:23:34;13.30;99.90
17938;DHT22;16051;53.024;8.630;2022-09-14T03:27:37;13.30;99.90
17938;DHT22;16051;53.024;8.630;2022-09-14T03:31:39;13.20;99.90
17938;DHT22;16051;53.024;8.630;2022-09-14T03:40:27;13.20;99.90
17938;DHT22;16051;53.024;8.630;2022-09-14T03:44:30;13.20;99.90
17938;DHT22;16051;53.024;8.630;2022-09-14T03:48:32;13.20;99.90
17938;DHT22;16051;53.024;8.630;2022-09-14T03:52:35;13.20;99.90
17938;DHT22;16051;53.024;8.630;2022-09-14T03:56:39;13.20;99.90
17938;DHT22;16051;53.024;8.630;2022-09-14T04:01:03;13.20;99.90
17938;DHT22;16051;53.024;8.630;2022-09-14T04:05:07;13.30;99.90
17938;DHT22;16051;53.024;8.630;2022-09-14T04:09:09;13.30;99.90
17938;DHT22;16051;53.024;8.630;2022-09-14T04:13:12;13.30;99.90
17938;DHT22;16051;53.024;8.630;2022-09-14T04:17:14;13.30;99.90
17938;DHT22;16051;53.024;8.630;2022-09-14T04:25:47;13.30;99.90
17938;DHT22;16051;53.024;8.630;2022-09-14T04:29:50;13.20;99.90
17938;DHT22;16051;53.024;8.630;2022-09-14T04:33:54;13.20;99.90
17938;DHT22;16051;53.024;8.630;2022-09-14T04:37:56;13.20;99.90
17938;DHT22;16051;53.024;8.630;2022-09-14T04:41:59;13.10;99.90
17938;DHT22;16051;53.024;8.630;2022-09-14T04:46:03;13.10;99.90
17938;DHT22;16051;53.024;8.630;2022-09-14T04:50:20;13.10;99.90
17938;DHT22;16051;53.024;8.630;2022-09-14T04:54:22;13.10;99.90
17938;DHT22;16051;53.024;8.630;2022-09-14T04:58:24;13.00;99.90
17938;DHT22;16051;53.024;8.630;2022-09-14T05:02:29;13.00;99.90
17938;DHT22;16051;53.024;8.630;2022-09-14T05:06:33;13.00;99.90
17938;DHT22;16051;53.024;8.630;2022-09-14T05:10:37;13.00;99.90
17938;DHT22;16051;53.024;8.630;2022-09-14T05:14:51;13.00;99.90
17938;DHT22;16051;53.024;8.630;2022-09-14T05:18:56;13.00;99.90
17938;DHT22;16051;53.024;8.630;2022-09-14T05:23:01;13.00;99.90
17938;DHT22;16051;53.024;8.630;2022-09-14T05:27:03;13.00;99.90
17938;DHT22;16051;53.024;8.630;2022-09-14T05:31:08;13.00;99.90
17938;DHT22;16051;53.024;8.630;2022-09-14T05:35:14;13.00;99.90
17938;DHT22;16051;53.024;8.630;2022-09-14T05:39:21;13.00;99.90
17938;DHT22;16051;53.024;8.630;2022-09-14T05:43:24;13.10;99.90
17938;DHT22;16051;53.024;8.630;2022-09-14T05:47:28;13.10;99.90
17938;DHT22;16051;53.024;8.630;2022-09-14T05:51:32;13.20;99.90
17938;DHT22;16051;53.024;8.630;2022-09-14T05:55:34;13.30;99.90
17938;DHT22;16051;53.024;8.630;2022-09-14T05:59:37;13.40;99.90
17938;DHT22;16051;53.024;8.630;2022-09-14T06:03:39;13.40;99.90
17938;DHT22;16051;53.024;8.630;2022-09-14T06:07:43;13.50;99.90
17938;DHT22;16051;53.024;8.630;2022-09-14T06:11:46;13.50;99.90
17938;DHT22;16051;53.024;8.630;2022-09-14T06:16:22;13.60;99.90
17938;DHT22;16051;53.024;8.630;2022-09-14T06:20:26;13.70;99.90
17938;DHT22;16051;53.024;8.630;2022-09-14T06:24:35;13.80;99.90
17938;DHT22;16051;53.024;8.630;2022-09-14T06:28:37;13.90;99.90
17938;DHT22;16051;53.024;8.630;2022-09-14T06:32:40;14.00;99.90
17938;DHT22;16051;53.024;8.630;2022-09-14T06:36:51;14.10;99.90
17938;DHT22;16051;53.024;8.630;2022-09-14T06:40:55;14.20;99.90
17938;DHT22;16051;53.024;8.630;2022-09-14T06:49:45;14.40;99.90
17938;DHT22;16051;53.024;8.630;2022-09-14T06:53:50;14.50;99.90
17938;DHT22;16051;53.024;8.630;2022-09-14T06:58:07;14.60;99.90
17938;DHT22;16051;53.024;8.630;2022-09-14T07:02:11;14.70;99.90
17938;DHT22;16051;53.024;8.630;2022-09-14T07:06:16;14.70;99.90
17938;DHT22;16051;53.024;8.630;2022-09-14T07:10:20;14.80;99.90
17938;DHT22;16051;53.024;8.630;2022-09-14T07:14:24;15.00;99.90
17938;DHT22;16051;53.024;8.630;2022-09-14T07:18:29;15.10;99.90
17938;DHT22;16051;53.024;8.630;2022-09-14T07:22:54;15.20;99.90
17938;DHT22;16051;53.024;8.630;2022-09-14T07:26:56;15.40;99.90
17938;DHT22;16051;53.024;8.630;2022-09-14T07:31:00;15.50;99.90
17938;DHT22;16051;53.024;8.630;2022-09-14T07:35:03;15.60;99.90
17938;DHT22;16051;53.024;8.630;2022-09-14T07:39:07;15.80;99.90
17938;DHT22;16051;53.024;8.630;2022-09-14T07:43:11;16.10;99.90
17938;DHT22;16051;53.024;8.630;2022-09-14T07:47:15;16.30;99.90
17938;DHT22;16051;53.024;8.630;2022-09-14T07:51:17;16.50;99.90
17938;DHT22;16051;53.024;8.630;2022-09-14T07:55:19;16.70;99.90
17938;DHT22;16051;53.024;8.630;2022-09-14T07:59:21;16.60;99.90
17938;DHT22;16051;53.024;8.630;2022-09-14T08:03:31;16.80;99.90
17938;DHT22;16051;53.024;8.630;2022-09-14T08:07:35;16.90;99.90
17938;DHT22;16051;53.024;8.630;2022-09-14T08:11:38;17.00;99.90
17938;DHT22;16051;53.024;8.630;2022-09-14T08:15:40;17.20;99.90
17938;DHT22;16051;53.024;8.630;2022-09-14T08:19:43;17.30;99.90
17938;DHT22;16051;53.024;8.630;2022-09-14T08:28:29;17.50;99.90
17938;DHT22;16051;53.024;8.630;2022-09-14T08:32:31;17.60;99.90
17938;DHT22;16051;53.024;8.630;2022-09-14T08:36:39;17.80;99.90
17938;DHT22;16051;53.024;8.630;2022-09-14T08:40:44;18.10;99.90
17938;DHT22;16051;53.024;8.630;2022-09-14T08:44:50;18.10;99.90
17938;DHT22;16051;53.024;8.630;2022-09-14T08:48:57;18.20;99.90
17938;DHT22;16051;53.024;8.630;2022-09-14T08:53:07;18.30;99.90
17938;DHT22;16051;53.024;8.630;2022-09-14T08:57:16;18.50;99.90
17938;DHT22;16051;53.024;8.630;2022-09-14T09:01:28;18.70;99.90
17938;DHT22;16051;53.024;8.630;2022-09-14T09:05:41;18.80;99.90
17938;DHT22;16051;53.024;8.630;2022-09-14T09:09:53;19.10;99.90
17938;DHT22;16051;53.024;8.630;2022-09-14T09:13:58;19.10;99.90
17938;DHT22;16051;53.024;8.630;2022-09-14T09:18:17;19.20;99.90
17938;DHT22;16051;53.024;8.630;2022-09-14T09:22:26;19.40;99.90
17938;DHT22;16051;53.024;8.630;2022-09-14T09:26:32;19.50;99.90
17938;DHT22;16051;53.024;8.630;2022-09-14T09:30:34;19.70;99.90
17938;DHT22;16051;53.024;8.630;2022-09-14T09:34:46;19.60;99.90
17938;DHT22;16051;53.024;8.630;2022-09-14T09:38:49;19.60;99.90
17938;DHT22;16051;53.024;8.630;2022-09-14T09:43:05;19.60;99.90
17938;DHT22;16051;53.024;8.630;2022-09-14T09:47:09;19.80;99.90
17938;DHT22;16051;53.024;8.630;2022-09-14T09:51:13;20.00;99.90
17938;DHT22;16051;53.024;8.630;2022-09-14T09:55:18;20.10;99.90
17938;DHT22;16051;53.024;8.630;2022-09-14T09:59:29;20.30;99.90
17938;DHT22;16051;53.024;8.630;2022-09-14T10:03:36;20.50;99.90
17938;DHT22;16051;53.024;8.630;2022-09-14T10:07:51;20.70;99.90
17938;DHT22;16051;53.024;8.630;2022-09-14T10:12:14;20.70;99.90
17938;DHT22;16051;53.024;8.630;2022-09-14T10:16:31;20.40;99.90
17938;DHT22;16051;53.024;8.630;2022-09-14T10:20:39;20.50;99.90
17938;DHT22;16051;53.024;8.630;2022-09-14T10:24:52;20.90;99.90
17938;DHT22;16051;53.024;8.630;2022-09-14T10:29:27;21.00;99.90
17938;DHT22;16051;53.024;8.630;2022-09-14T10:33:45;20.70;99.90
17938;DHT22;16051;53.024;8.630;2022-09-14T10:38:23;20.60;99.90
17938;DHT22;16051;53.024;8.630;2022-09-14T10:42:37;20.30;99.90
17938;DHT22;16051;53.024;8.630;2022-09-14T10:46:49;20.20;99.90
17938;DHT22;16051;53.024;8.630;2022-09-14T10:51:28;20.10;99.90
17938;DHT22;16051;53.024;8.630;2022-09-14T10:55:44;20.40;99.90
17938;DHT22;16051;53.024;8.630;2022-09-14T10:59:54;20.20;99.90
17938;DHT22;16051;53.024;8.630;2022-09-14T11:04:15;20.80;99.90
17938;DHT22;16051;53.024;8.630;2022-09-14T11:08:39;21.10;99.90
17938;DHT22;16051;53.024;8.630;2022-09-14T11:22:04;22.30;99.90
17938;DHT22;16051;53.024;8.630;2022-09-14T11:26:18;22.40;99.90
17938;DHT22;16051;53.024;8.630;2022-09-14T11:30:35;22.40;99.90
17938;DHT22;16051;53.024;8.630;2022-09-14T11:34:44;22.20;99.90
17938;DHT22;16051;53.024;8.630;2022-09-14T11:38:58;22.20;99.90
17938;DHT22;16051;53.024;8.630;2022-09-14T11:43:10;22.20;99.90
17938;DHT22;16051;53.024;8.630;2022-09-14T11:47:19;22.10;99.90
17938;DHT22;16051;53.024;8.630;2022-09-14T11:51:28;21.90;99.90
17938;DHT22;16051;53.024;8.630;2022-09-14T11:55:34;21.70;99.90
17938;DHT22;16051;53.024;8.630;2022-09-14T11:59:51;21.20;99.90
17938;DHT22;16051;53.024;8.630;2022-09-14T12:04:10;21.30;99.90
17938;DHT22;16051;53.024;8.630;2022-09-14T12:08:26;21.60;99.90
17938;DHT22;16051;53.024;8.630;2022-09-14T12:12:37;22.10;99.90
17938;DHT22;16051;53.024;8.630;2022-09-14T12:17:05;22.30;99.90
17938;DHT22;16051;53.024;8.630;2022-09-14T12:21:21;22.20;99.90
17938;DHT22;16051;53.024;8.630;2022-09-14T12:25:26;22.50;99.90
17938;DHT22;16051;53.024;8.630;2022-09-14T12:29:32;23.30;99.90
17938;DHT22;16051;53.024;8.630;2022-09-14T12:34:03;23.60;99.90
17938;DHT22;16051;53.024;8.630;2022-09-14T12:39:05;22.90;99.90
17938;DHT22;16051;53.024;8.630;2022-09-14T12:43:51;22.70;99.90
17938;DHT22;16051;53.024;8.630;2022-09-14T12:47:54;23.00;99.90
17938;DHT22;16051;53.024;8.630;2022-09-14T12:52:34;23.80;99.80
17938;DHT22;16051;53.024;8.630;2022-09-14T12:56:52;22.90;99.60
17938;DHT22;16051;53.024;8.630;2022-09-14T13:01:28;22.50;99.90
17938;DHT22;16051;53.024;8.630;2022-09-14T13:05:36;22.60;99.90
17938;DHT22;16051;53.024;8.630;2022-09-14T13:09:45;22.90;99.90
17938;DHT22;16051;53.024;8.630;2022-09-14T13:13:54;22.70;99.40
17938;DHT22;16051;53.024;8.630;2022-09-14T13:17:58;22.60;99.30
17938;DHT22;16051;53.024;8.630;2022-09-14T13:22:19;22.40;99.40
17938;DHT22;16051;53.024;8.630;2022-09-14T13:26:28;22.40;99.60
17938;DHT22;16051;53.024;8.630;2022-09-14T13:30:34;22.30;99.20
17938;DHT22;16051;53.024;8.630;2022-09-14T13:34:37;22.50;99.60
17938;DHT22;16051;53.024;8.630;2022-09-14T13:38:42;23.00;99.70
17938;DHT22;16051;53.024;8.630;2022-09-14T13:42:52;23.40;99.20
17938;DHT22;16051;53.024;8.630;2022-09-14T13:46:56;23.00;97.90
17938;DHT22;16051;53.024;8.630;2022-09-14T13:50:59;22.80;98.20
17938;DHT22;16051;53.024;8.630;2022-09-14T13:55:24;22.80;98.30
17938;DHT22;16051;53.024;8.630;2022-09-14T13:59:29;22.40;98.50
17938;DHT22;16051;53.024;8.630;2022-09-14T14:03:40;22.10;99.90
17938;DHT22;16051;53.024;8.630;2022-09-14T14:07:47;21.80;99.90
17938;DHT22;16051;53.024;8.630;2022-09-14T14:11:55;21.80;99.90
17938;DHT22;16051;53.024;8.630;2022-09-14T14:16:16;22.10;99.90
17938;DHT22;16051;53.024;8.630;2022-09-14T14:20:32;22.20;99.90
17938;DHT22;16051;53.024;8.630;2022-09-14T14:24:36;22.00;99.90
17938;DHT22;16051;53.024;8.630;2022-09-14T14:28:39;22.30;99.90
17938;DHT22;16051;53.024;8.630;2022-09-14T14:32:48;22.80;99.90
17938;DHT22;16051;53.024;8.630;2022-09-14T14:36:51;22.80;99.90
17938;DHT22;16051;53.024;8.630;2022-09-14T14:40:55;22.20;99.90
17938;DHT22;16051;53.024;8.630;2022-09-14T14:44:58;22.70;99.90
17938;DHT22;16051;53.024;8.630;2022-09-14T14:49:02;22.40;99.90
17938;DHT22;16051;53.024;8.630;2022-09-14T14:53:09;22.20;99.90
17938;DHT22;16051;53.024;8.630;2022-09-14T14:57:11;22.30;99.90
17938;DHT22;16051;53.024;8.630;2022-09-14T15:01:13;22.20;99.90
17938;DHT22;16051;53.024;8.630;2022-09-14T15:05:29;22.30;99.90
17938;DHT22;16051;53.024;8.630;2022-09-14T15:09:31;22.40;99.90
17938;DHT22;16051;53.024;8.630;2022-09-14T15:13:34;22.50;99.70
17938;DHT22;16051;53.024;8.630;2022-09-14T15:17:36;22.50;99.20
17938;DHT22;16051;53.024;8.630;2022-09-14T15:21:46;22.10;99.60
17938;DHT22;16051;53.024;8.630;2022-09-14T15:25:50;22.20;99.30
17938;DHT22;16051;53.024;8.630;2022-09-14T15:29:52;22.40;99.70
17938;DHT22;16051;53.024;8.630;2022-09-14T15:33:54;23.00;99.70
17938;DHT22;16051;53.024;8.630;2022-09-14T15:37:59;23.40;98.90
17938;DHT22;16051;53.024;8.630;2022-09-14T15:42:01;23.30;98.60
17938;DHT22;16051;53.024;8.630;2022-09-14T15:46:12;23.50;99.90
17938;DHT22;16051;53.024;8.630;2022-09-14T15:50:15;23.80;99.90
17938;DHT22;16051;53.024;8.630;2022-09-14T15:54:21;23.80;99.90
17938;DHT22;16051;53.024;8.630;2022-09-14T15:58:31;23.80;99.90
17938;DHT22;16051;53.024;8.630;2022-09-14T16:02:43;23.70;99.90
17938;DHT22;16051;53.024;8.630;2022-09-14T16:06:46;23.50;99.90
17938;DHT22;16051;53.024;8.630;2022-09-14T16:11:09;23.40;99.90
17938;DHT22;16051;53.024;8.630;2022-09-14T16:15:12;23.30;99.90
17938;DHT22;16051;53.024;8.630;2022-09-14T16:19:14;23.10;99.90
17938;DHT22;16051;53.024;8.630;2022-09-14T16:23:16;22.80;99.90
17938;DHT22;16051;53.024;8.630;2022-09-14T16:27:20;22.60;99.90
17938;DHT22;16051;53.024;8.630;2022-09-14T16:31:26;22.40;99.90
17938;DHT22;16051;53.024;8.630;2022-09-14T16:35:38;22.10;99.90
17938;DHT22;16051;53.024;8.630;2022-09-14T16:40:02;21.90;99.90
17938;DHT22;16051;53.024;8.630;2022-09-14T16:44:11;21.80;99.90
17938;DHT22;16051;53.024;8.630;2022-09-14T16:48:15;21.60;99.90
17938;DHT22;16051;53.024;8.630;2022-09-14T16:52:17;21.50;99.90
17938;DHT22;16051;53.024;8.630;2022-09-14T16:56:21;21.50;99.90
17938;DHT22;16051;53.024;8.630;2022-09-14T17:00:36;21.40;99.90
17938;DHT22;16051;53.024;8.630;2022-09-14T17:04:39;21.30;99.90
17938;DHT22;16051;53.024;8.630;2022-09-14T17:08:51;21.20;99.90
17938;DHT22;16051;53.024;8.630;2022-09-14T17:12:54;21.10;99.90
17938;DHT22;16051;53.024;8.630;2022-09-14T17:17:11;20.90;99.90
17938;DHT22;16051;53.024;8.630;2022-09-14T17:21:15;20.80;99.90
17938;DHT22;16051;53.024;8.630;2022-09-14T17:25:19;20.70;99.90
17938;DHT22;16051;53.024;8.630;2022-09-14T17:29:23;20.70;99.90
17938;DHT22;16051;53.024;8.630;2022-09-14T17:33:29;20.50;99.90
17938;DHT22;16051;53.024;8.630;2022-09-14T17:37:33;20.40;99.90
17938;DHT22;16051;53.024;8.630;2022-09-14T17:41:35;20.00;99.90
17938;DHT22;16051;53.024;8.630;2022-09-14T17:45:50;19.80;99.90
17938;DHT22;16051;53.024;8.630;2022-09-14T17:49:55;19.60;99.90
17938;DHT22;16051;53.024;8.630;2022-09-14T17:53:59;19.50;99.90
17938;DHT22;16051;53.024;8.630;2022-09-14T17:58:01;19.50;99.90
17938;DHT22;16051;53.024;8.630;2022-09-14T18:02:07;19.40;99.90
17938;DHT22;16051;53.024;8.630;2022-09-14T18:06:11;19.30;99.90
17938;DHT22;16051;53.024;8.630;2022-09-14T18:10:14;19.10;99.90
17938;DHT22;16051;53.024;8.630;2022-09-14T18:14:18;19.00;99.90
17938;DHT22;16051;53.024;8.630;2022-09-14T18:18:40;18.90;99.90
17938;DHT22;16051;53.024;8.630;2022-09-14T18:22:44;18.70;99.90
17938;DHT22;16051;53.024;8.630;2022-09-14T18:26:48;18.60;99.90
17938;DHT22;16051;53.024;8.630;2022-09-14T18:30:58;18.60;99.90
17938;DHT22;16051;53.024;8.630;2022-09-14T18:35:01;18.50;99.90
17938;DHT22;16051;53.024;8.630;2022-09-14T18:39:06;18.40;99.90
17938;DHT22;16051;53.024;8.630;2022-09-14T18:43:09;18.30;99.90
17938;DHT22;16051;53.024;8.630;2022-09-14T18:47:11;18.20;99.90
17938;DHT22;16051;53.024;8.630;2022-09-14T18:51:14;18.20;99.90
17938;DHT22;16051;53.024;8.630;2022-09-14T18:55:17;18.10;99.90
17938;DHT22;16051;53.024;8.630;2022-09-14T18:59:19;18.10;99.90
17938;DHT22;16051;53.024;8.630;2022-09-14T19:03:22;18.10;99.90
17938;DHT22;16051;53.024;8.630;2022-09-14T19:07:35;18.00;99.90
17938;DHT22;16051;53.024;8.630;2022-09-14T19:11:39;18.00;99.90
17938;DHT22;16051;53.024;8.630;2022-09-14T19:15:41;18.00;99.90
17938;DHT22;16051;53.024;8.630;2022-09-14T19:19:45;17.90;99.90
17938;DHT22;16051;53.024;8.630;2022-09-14T19:23:47;17.90;99.90
17938;DHT22;16051;53.024;8.630;2022-09-14T19:28:25;17.80;99.90
17938;DHT22;16051;53.024;8.630;2022-09-14T19:32:27;17.80;99.90
17938;DHT22;16051;53.024;8.630;2022-09-14T19:36:30;17.70;99.90
17938;DHT22;16051;53.024;8.630;2022-09-14T19:40:56;17.70;99.90
17938;DHT22;16051;53.024;8.630;2022-09-14T19:44:59;17.60;99.90
17938;DHT22;16051;53.024;8.630;2022-09-14T19:49:01;17.50;99.90
17938;DHT22;16051;53.024;8.630;2022-09-14T19:53:03;17.50;99.90
17938;DHT22;16051;53.024;8.630;2022-09-14T19:57:06;17.40;99.90
17938;DHT22;16051;53.024;8.630;2022-09-14T20:01:09;17.30;99.90
17938;DHT22;16051;53.024;8.630;2022-09-14T20:05:21;17.20;99.90
17938;DHT22;16051;53.024;8.630;2022-09-14T20:09:24;17.10;99.90
17938;DHT22;16051;53.024;8.630;2022-09-14T20:13:43;17.10;99.90
17938;DHT22;16051;53.024;8.630;2022-09-14T20:18:06;17.00;99.90
17938;DHT22;16051;53.024;8.630;2022-09-14T20:22:09;16.90;99.90
17938;DHT22;16051;53.024;8.630;2022-09-14T20:26:47;16.80;99.90
17938;DHT22;16051;53.024;8.630;2022-09-14T20:30:56;16.70;99.90
17938;DHT22;16051;53.024;8.630;2022-09-14T20:35:00;16.60;99.90
17938;DHT22;16051;53.024;8.630;2022-09-14T20:39:17;16.60;99.90
17938;DHT22;16051;53.024;8.630;2022-09-14T20:43:22;16.40;99.90
17938;DHT22;16051;53.024;8.630;2022-09-14T20:47:31;16.30;99.90
17938;DHT22;16051;53.024;8.630;2022-09-14T20:51:51;16.30;99.90
17938;DHT22;16051;53.024;8.630;2022-09-14T20:55:59;16.20;99.90
17938;DHT22;16051;53.024;8.630;2022-09-14T21:00:07;16.10;99.90
17938;DHT22;16051;53.024;8.630;2022-09-14T21:04:14;16.00;99.90
17938;DHT22;16051;53.024;8.630;2022-09-14T21:08:27;15.90;99.90
17938;DHT22;16051;53.024;8.630;2022-09-14T21:12:47;15.80;99.90
17938;DHT22;16051;53.024;8.630;2022-09-14T21:16:52;15.80;99.90
17938;DHT22;16051;53.024;8.630;2022-09-14T21:20:56;15.70;99.90
17938;DHT22;16051;53.024;8.630;2022-09-14T21:29:28;15.50;99.90
17938;DHT22;16051;53.024;8.630;2022-09-14T21:33:31;15.40;99.90
17938;DHT22;16051;53.024;8.630;2022-09-14T21:37:34;15.30;99.90
17938;DHT22;16051;53.024;8.630;2022-09-14T21:41:38;15.30;99.90
17938;DHT22;16051;53.024;8.630;2022-09-14T21:45:43;15.20;99.90
17938;DHT22;16051;53.024;8.630;2022-09-14T21:49:47;15.20;99.90
17938;DHT22;16051;53.024;8.630;2022-09-14T21:53:50;15.10;99.90
17938;DHT22;16051;53.024;8.630;2022-09-14T21:57:55;15.00;99.90
17938;DHT22;16051;53.024;8.630;2022-09-14T22:02:17;14.90;99.90
17938;DHT22;16051;53.024;8.630;2022-09-14T22:06:23;14.80;99.90
17938;DHT22;16051;53.024;8.630;2022-09-14T22:10:27;14.80;99.90
17938;DHT22;16051;53.024;8.630;2022-09-14T22:19:21;14.70;99.90
17938;DHT22;16051;53.024;8.630;2022-09-14T22:23:24;14.60;99.90
17938;DHT22;16051;53.024;8.630;2022-09-14T22:27:41;14.60;99.90
17938;DHT22;16051;53.024;8.630;2022-09-14T22:31:45;14.50;99.90
17938;DHT22;16051;53.024;8.630;2022-09-14T22:35:50;14.50;99.90
17938;DHT22;16051;53.024;8.630;2022-09-14T22:39:53;14.50;99.90
17938;DHT22;16051;53.024;8.630;2022-09-14T22:44:14;14.40;99.90
17938;DHT22;16051;53.024;8.630;2022-09-14T22:48:18;14.40;99.90
17938;DHT22;16051;53.024;8.630;2022-09-14T22:52:20;14.30;99.90
17938;DHT22;16051;53.024;8.630;2022-09-14T22:56:25;14.30;99.90
17938;DHT22;16051;53.024;8.630;2022-09-14T23:00:28;14.30;99.90
17938;DHT22;16051;53.024;8.630;2022-09-14T23:04:32;14.20;99.90
17938;DHT22;16051;53.024;8.630;2022-09-14T23:08:35;14.20;99.90
17938;DHT22;16051;53.024;8.630;2022-09-14T23:12:37;14.20;99.90
17938;DHT22;16051;53.024;8.630;2022-09-14T23:16:40;14.10;99.90
17938;DHT22;16051;53.024;8.630;2022-09-14T23:20:46;14.10;99.90
17938;DHT22;16051;53.024;8.630;2022-09-14T23:24:48;14.10;99.90
17938;DHT22;16051;53.024;8.630;2022-09-14T23:28:52;14.00;99.90
17938;DHT22;16051;53.024;8.630;2022-09-14T23:32:55;13.90;99.90
17938;DHT22;16051;53.024;8.630;2022-09-14T23:36:59;13.90;99.90
17938;DHT22;16051;53.024;8.630;2022-09-14T23:41:01;13.90;99.90
17938;DHT22;16051;53.024;8.630;2022-09-14T23:45:04;13.90;99.90
17938;DHT22;16051;53.024;8.630;2022-09-14T23:49:15;13.80;99.90
17938;DHT22;16051;53.024;8.630;2022-09-14T23:53:19;13.80;99.90
17938;DHT22;16051;53.024;8.630;2022-09-14T23:57:24;13.70;99.90
